Time;durP1;ratioP1;P1;durP2;ratioP2;P2;SDS_P1;SDS_P2;PMS_P1;PMS_P2;Temp;Humidity;BMP_temperature;BMP_pressure;BME280_temperature;BME280_humidity;BME280_pressure;Samples;Min_cycle;Max_cycle;Signal;HPM_P1;HPM_P2
2022/03/31 00:01:48;;;;;;;19.98;7.03;;;;;;;2.58;100.00;97453.06;2138004;83;21039;-61
2022/03/31 00:04:49;;;;;;;19.90;7.62;;;;;;;2.59;100.00;97453.45;2137924;83;21030;-61
2022/03/31 00:07:50;;;;;;;20.60;7.58;;;;;;;2.56;100.00;97454.44;2138037;83;20951;-61
2022/03/31 00:10:52;;;;;;;19.90;6.95;;;;;;;2.53;100.00;97449.41;2138520;83;20967;-61
2022/03/31 00:13:54;;;;;;;19.33;7.13;;;;;;;2.47;100.00;97454.91;2138346;83;21099;-61
2022/03/31 00:16:55;;;;;;;18.30;6.63;;;;;;;2.32;100.00;97434.50;2138455;83;21359;-61
2022/03/31 00:19:57;;;;;;;19.92;6.92;;;;;;;2.30;100.00;97440.22;2137667;83;21387;-61
2022/03/31 00:22:58;;;;;;;20.00;7.17;;;;;;;2.30;100.00;97442.80;2137931;83;21565;-61
2022/03/31 00:26:00;;;;;;;20.10;7.40;;;;;;;2.19;100.00;97438.61;2138330;83;21015;-60
2022/03/31 00:29:01;;;;;;;21.10;7.90;;;;;;;2.11;100.00;97432.97;2138220;83;21443;-61
2022/03/31 00:32:04;;;;;;;20.30;7.42;;;;;;;2.02;100.00;97432.96;2137773;83;21288;-61
2022/03/31 00:35:05;;;;;;;21.15;7.00;;;;;;;1.97;100.00;97425.44;2138352;83;21489;-61
2022/03/31 00:38:07;;;;;;;18.95;6.90;;;;;;;1.95;100.00;97428.53;2138080;83;20994;-60
2022/03/31 00:41:09;;;;;;;18.87;6.93;;;;;;;2.05;100.00;97434.10;2138225;83;21079;-61
2022/03/31 00:44:10;;;;;;;21.15;8.20;;;;;;;1.99;100.00;97434.41;2138158;83;21225;-60
2022/03/31 00:47:12;;;;;;;20.90;8.27;;;;;;;2.02;100.00;97426.03;2138226;83;20993;-61
2022/03/31 00:50:13;;;;;;;21.48;8.13;;;;;;;1.97;100.00;97425.87;2138101;83;20967;-60
2022/03/31 00:53:15;;;;;;;20.40;7.47;;;;;;;1.92;100.00;97420.10;2137929;83;20998;-61
2022/03/31 00:56:16;;;;;;;20.85;8.20;;;;;;;1.85;100.00;97413.94;2138214;83;20998;-61
2022/03/31 00:59:18;;;;;;;21.37;7.97;;;;;;;1.87;100.00;97415.98;2137880;83;21094;-60
2022/03/31 01:02:19;;;;;;;19.55;7.83;;;;;;;1.84;100.00;97418.72;2138291;83;20991;-60
2022/03/31 01:05:21;;;;;;;20.52;7.95;;;;;;;1.93;100.00;97412.73;2137941;83;21095;-61
2022/03/31 01:08:22;;;;;;;20.92;8.20;;;;;;;1.95;100.00;97409.60;2138134;83;21593;-60
2022/03/31 01:11:24;;;;;;;21.02;7.85;;;;;;;1.81;100.00;97407.24;2137964;83;21098;-60
2022/03/31 01:14:25;;;;;;;21.35;7.85;;;;;;;1.80;100.00;97402.14;2137918;83;21074;-60
2022/03/31 01:17:27;;;;;;;20.32;7.70;;;;;;;1.78;100.00;97403.95;2138324;83;21034;-61
2022/03/31 01:20:28;;;;;;;20.92;8.53;;;;;;;1.75;100.00;97399.76;2137930;83;21113;-60
2022/03/31 01:23:29;;;;;;;21.80;8.83;;;;;;;1.76;100.00;97403.20;2137990;83;21002;-61
2022/03/31 01:26:31;;;;;;;19.73;7.83;;;;;;;1.76;100.00;97410.48;2137886;83;21064;-61
2022/03/31 01:29:33;;;;;;;20.62;7.58;;;;;;;1.80;100.00;97407.31;2138102;83;21034;-61
2022/03/31 01:32:34;;;;;;;20.05;7.53;;;;;;;1.80;100.00;97406.84;2127155;84;21044;-60
2022/03/31 01:35:36;;;;;;;20.37;7.58;;;;;;;1.77;100.00;97411.31;2127719;84;21566;-61
2022/03/31 01:38:38;;;;;;;21.57;7.92;;;;;;;1.85;100.00;97413.09;2127223;84;21088;-61
2022/03/31 01:41:40;;;;;;;19.67;7.62;;;;;;;1.92;100.00;97409.29;2127540;84;21027;-60
2022/03/31 01:44:42;;;;;;;18.67;6.92;;;;;;;1.87;100.00;97412.11;2127319;84;21034;-60
2022/03/31 01:47:44;;;;;;;19.40;7.28;;;;;;;1.83;100.00;97410.58;2127408;84;21086;-61
2022/03/31 01:50:46;;;;;;;;;;;;;;;1.92;100.00;97422.69;2129856;84;21086;-61
2022/03/31 01:53:47;;;;;;;19.82;7.33;;;;;;;1.81;100.00;97411.12;2127216;84;20181;-61
2022/03/31 01:56:49;;;;;;;18.65;7.15;;;;;;;1.79;100.00;97411.63;2127293;84;21609;-61
2022/03/31 01:59:51;;;;;;;20.08;7.35;;;;;;;1.77;100.00;97408.30;2127538;84;21071;-61
2022/03/31 02:02:52;;;;;;;20.23;7.30;;;;;;;1.73;100.00;97410.64;2127322;84;21087;-61
2022/03/31 02:05:54;;;;;;;18.30;6.53;;;;;;;1.80;100.00;97411.20;2127277;84;21055;-61
2022/03/31 02:08:57;;;;;;;18.40;6.47;;;;;;;1.77;100.00;97417.78;2127068;84;21570;-61
2022/03/31 02:11:58;;;;;;;17.57;6.40;;;;;;;1.83;100.00;97416.22;2127333;84;21083;-61
2022/03/31 02:15:00;;;;;;;18.55;6.47;;;;;;;1.70;100.00;97413.38;2127405;84;21515;-61
2022/03/31 02:18:03;;;;;;;19.30;6.87;;;;;;;1.82;100.00;97414.06;2127240;84;21055;-61
2022/03/31 02:21:04;;;;;;;;;;;;;;;1.82;100.00;97422.28;2129908;84;21050;-60
2022/03/31 02:24:06;;;;;;;16.95;5.55;;;;;;;1.85;100.00;97413.09;2127234;84;20105;-61
2022/03/31 02:27:07;;;;;;;17.77;6.10;;;;;;;1.82;100.00;97413.23;2127531;84;20988;-61
2022/03/31 02:30:09;;;;;;;17.00;5.78;;;;;;;1.83;100.00;97411.87;2128745;83;21023;-61
2022/03/31 02:33:10;;;;;;;17.73;5.85;;;;;;;1.92;100.00;97422.22;2138049;83;21022;-61
2022/03/31 02:36:12;;;;;;;17.92;5.70;;;;;;;1.88;100.00;97414.22;2138068;83;21075;-61
2022/03/31 02:39:13;;;;;;;20.75;6.35;;;;;;;1.86;100.00;97413.48;2138269;83;21493;-61
2022/03/31 02:42:16;;;;;;;15.25;5.05;;;;;;;1.82;100.00;97414.53;2138272;83;21071;-61
2022/03/31 02:45:19;;;;;;;18.10;6.85;;;;;;;1.79;100.00;97417.27;2138191;83;20971;-61
2022/03/31 02:48:21;;;;;;;16.60;6.42;;;;;;;1.76;100.00;97416.95;2138252;83;21042;-60
2022/03/31 02:51:22;;;;;;;15.30;4.92;;;;;;;1.81;100.00;97410.27;2138092;83;21007;-61
2022/03/31 02:57:27;;;;;;;13.65;4.80;;;;;;;1.87;100.00;97415.16;2114071;83;21451;-60
2022/03/31 03:00:28;;;;;;;13.53;4.60;;;;;;;1.86;100.00;97412.19;2138202;83;20999;-61
2022/03/31 03:03:32;;;;;;;12.00;4.40;;;;;;;1.80;100.00;97408.61;2138151;83;21505;-61
2022/03/31 03:06:33;;;;;;;14.83;4.70;;;;;;;1.84;100.00;97408.81;2113734;83;21070;-61
2022/03/31 03:09:36;;;;;;;15.85;5.10;;;;;;;1.84;100.00;97429.06;2137709;83;21047;-61
2022/03/31 03:12:40;;;;;;;16.75;5.22;;;;;;;1.89;100.00;97421.91;2138103;83;20984;-61
2022/03/31 03:15:41;;;;;;;16.55;5.42;;;;;;;1.89;100.00;97426.25;2113659;83;21011;-61
2022/03/31 03:18:42;;;;;;;15.28;5.40;;;;;;;1.89;100.00;97419.78;2138175;83;20990;-61
2022/03/31 03:21:44;;;;;;;17.48;5.75;;;;;;;1.89;100.00;97421.08;2138348;83;21102;-61
2022/03/31 03:24:45;;;;;;;19.32;6.08;;;;;;;1.90;100.00;97414.54;2138212;83;20995;-60
2022/03/31 03:27:47;;;;;;;17.25;5.97;;;;;;;1.83;100.00;97409.75;2138287;83;21003;-60
2022/03/31 03:30:49;;;;;;;18.23;6.03;;;;;;;1.85;100.00;97418.25;2138056;83;21038;-61
2022/03/31 03:33:50;;;;;;;16.80;5.78;;;;;;;1.83;100.00;97420.09;2138338;83;21063;-61
2022/03/31 03:36:52;;;;;;;15.78;5.60;;;;;;;1.88;100.00;97416.81;2138007;83;20952;-61
2022/03/31 03:39:53;;;;;;;16.95;5.92;;;;;;;1.81;100.00;97412.41;2138359;83;21498;-61
2022/03/31 03:42:56;;;;;;;15.18;5.45;;;;;;;1.90;100.00;97416.30;2137879;83;21115;-60
2022/03/31 03:45:58;;;;;;;16.07;5.62;;;;;;;1.89;100.00;97416.73;2138256;83;20990;-61
2022/03/31 03:48:59;;;;;;;19.87;5.60;;;;;;;1.86;100.00;97418.18;2138027;83;21030;-60
2022/03/31 03:52:01;;;;;;;14.10;5.20;;;;;;;1.85;100.00;97430.75;2138221;83;21592;-61
2022/03/31 03:55:02;;;;;;;16.10;5.75;;;;;;;1.77;100.00;97428.12;2138261;83;21010;-61
2022/03/31 03:58:04;;;;;;;16.37;5.20;;;;;;;1.80;100.00;97431.41;2138278;83;20994;-60
2022/03/31 04:01:05;;;;;;;17.63;6.07;;;;;;;1.76;100.00;97435.52;2138423;83;20956;-60
2022/03/31 04:04:07;;;;;;;17.37;5.42;;;;;;;1.79;100.00;97429.73;2138201;83;21042;-61
2022/03/31 04:07:08;;;;;;;17.05;6.05;;;;;;;1.81;100.00;97438.27;2138218;83;21494;-61
2022/03/31 04:10:11;;;;;;;16.30;5.97;;;;;;;1.81;100.00;97438.70;2138020;83;21541;-60
2022/03/31 04:13:12;;;;;;;18.15;6.20;;;;;;;1.77;100.00;97446.22;2138147;83;21058;-61
2022/03/31 04:16:14;;;;;;;19.95;7.22;;;;;;;1.75;100.00;97447.59;2138504;83;20983;-61
2022/03/31 04:19:15;;;;;;;18.05;6.45;;;;;;;1.76;100.00;97444.56;2137978;83;21043;-61
2022/03/31 04:22:17;;;;;;;16.35;6.28;;;;;;;1.70;100.00;97445.22;2138155;83;21549;-60
2022/03/31 04:25:18;;;;;;;18.80;6.10;;;;;;;1.69;100.00;97454.34;2137989;83;21047;-61
2022/03/31 04:28:20;;;;;;;17.73;6.40;;;;;;;1.66;100.00;97457.08;2138584;83;21498;-61
2022/03/31 04:31:21;;;;;;;18.45;6.65;;;;;;;1.62;100.00;97446.50;2138222;83;21262;-61
2022/03/31 04:34:23;;;;;;;18.27;6.30;;;;;;;1.60;100.00;97451.73;2137920;83;21018;-61
2022/03/31 04:37:24;;;;;;;17.55;6.28;;;;;;;1.60;100.00;97457.38;2138282;83;21069;-61
2022/03/31 04:40:26;;;;;;;18.35;6.33;;;;;;;1.63;100.00;97459.81;2137991;83;21070;-61
2022/03/31 04:43:28;;;;;;;17.00;6.17;;;;;;;1.66;100.00;97461.78;2137893;83;21531;-60
2022/03/31 04:46:29;;;;;;;16.67;6.20;;;;;;;1.77;100.00;97464.31;2138089;83;20996;-61
2022/03/31 04:49:31;;;;;;;17.63;6.13;;;;;;;1.74;100.00;97458.86;2138219;83;21018;-61
2022/03/31 04:52:33;;;;;;;18.27;6.40;;;;;;;1.77;100.00;97461.30;2138056;83;21010;-61
2022/03/31 04:55:34;;;;;;;19.65;7.22;;;;;;;1.78;100.00;97459.53;2138067;83;21521;-61
2022/03/31 04:58:37;;;;;;;19.12;7.03;;;;;;;1.69;100.00;97465.52;2138082;83;20982;-61
2022/03/31 05:01:39;;;;;;;19.20;6.72;;;;;;;1.75;100.00;97466.15;2138179;83;21002;-60
2022/03/31 05:04:40;;;;;;;17.87;6.45;;;;;;;1.68;100.00;97466.45;2137888;83;21058;-61
2022/03/31 05:07:42;;;;;;;18.12;6.72;;;;;;;1.69;100.00;97457.76;2138375;83;21535;-60
2022/03/31 05:10:45;;;;;;;18.30;6.83;;;;;;;1.79;100.00;97458.64;2138192;83;20952;-61
2022/03/31 05:13:46;;;;;;;19.48;6.90;;;;;;;1.76;100.00;97454.44;2138005;83;20987;-60
2022/03/31 05:16:48;;;;;;;17.92;6.30;;;;;;;1.83;100.00;97454.53;2137884;83;21055;-61
2022/03/31 05:19:50;;;;;;;18.37;6.72;;;;;;;1.84;100.00;97464.41;2138085;83;20995;-60
2022/03/31 05:22:51;;;;;;;18.92;7.58;;;;;;;1.96;100.00;97478.06;2138119;83;21090;-61
2022/03/31 05:25:53;;;;;;;20.45;7.78;;;;;;;1.98;100.00;97477.98;2137637;83;21022;-61
2022/03/31 05:28:54;;;;;;;19.30;7.20;;;;;;;1.95;100.00;97477.67;2137963;83;21059;-60
2022/03/31 05:31:57;;;;;;;19.30;7.15;;;;;;;1.96;100.00;97472.89;2133129;83;21135;-60
2022/03/31 05:34:59;;;;;;;20.80;7.95;;;;;;;1.99;100.00;97475.33;2127247;84;21039;-61
2022/03/31 05:38:01;;;;;;;20.82;7.95;;;;;;;1.98;100.00;97477.52;2127370;84;21602;-61
2022/03/31 05:41:03;;;;;;;21.23;8.33;;;;;;;1.97;100.00;97490.09;2127522;84;20995;-61
2022/03/31 05:44:04;;;;;;;21.03;8.33;;;;;;;2.03;100.00;97491.08;2127356;84;21434;-61
2022/03/31 05:47:06;;;;;;;21.90;8.90;;;;;;;2.09;100.00;97505.47;2127276;84;20987;-61
2022/03/31 05:50:08;;;;;;;19.62;7.58;;;;;;;2.11;100.00;97502.81;2127356;84;21115;-61
2022/03/31 05:53:10;;;;;;;20.68;8.28;;;;;;;2.19;100.00;97492.47;2127282;84;21059;-61
2022/03/31 05:56:12;;;;;;;20.23;8.25;;;;;;;2.18;100.00;97489.96;2127351;84;21067;-61
2022/03/31 05:59:15;;;;;;;19.02;7.22;;;;;;;2.19;100.00;97500.70;2127321;84;21102;-61
2022/03/31 06:02:16;;;;;;;20.40;8.43;;;;;;;2.13;100.00;97501.83;2099586;84;21030;-61
2022/03/31 06:05:18;;;;;;;19.42;7.20;;;;;;;2.25;100.00;97501.22;2127467;84;20991;-60
2022/03/31 06:08:19;;;;;;;18.83;6.83;;;;;;;2.27;100.00;97498.59;2127692;84;21149;-60
2022/03/31 06:11:21;;;;;;;20.37;7.22;;;;;;;2.38;100.00;97509.23;2127330;84;21036;-61
2022/03/31 06:14:22;;;;;;;18.62;6.62;;;;;;;2.40;100.00;97513.89;2127387;84;21042;-61
2022/03/31 06:17:23;;;;;;;19.52;7.08;;;;;;;2.38;100.00;97514.88;2127330;84;21002;-61
2022/03/31 06:20:25;;;;;;;18.73;6.95;;;;;;;2.47;100.00;97509.70;2127563;84;20971;-60
2022/03/31 06:23:27;;;;;;;19.45;7.08;;;;;;;2.48;100.00;97511.38;2127269;84;20982;-60
2022/03/31 06:26:29;;;;;;;21.40;7.72;;;;;;;2.47;100.00;97508.41;2127164;84;21051;-60
2022/03/31 06:29:31;;;;;;;26.30;9.98;;;;;;;2.42;100.00;97515.11;2127555;84;21003;-61
2022/03/31 06:32:32;;;;;;;27.30;11.12;;;;;;;2.46;100.00;97520.95;2133146;83;21079;-60
2022/03/31 06:35:34;;;;;;;30.50;12.90;;;;;;;2.41;100.00;97523.77;2138318;83;21564;-60
2022/03/31 06:38:35;;;;;;;21.68;8.90;;;;;;;2.44;100.00;97519.73;2138097;83;20987;-60
2022/03/31 06:41:37;;;;;;;21.52;8.83;;;;;;;2.38;100.00;97527.81;2138391;83;21015;-61
2022/03/31 06:44:38;;;;;;;26.00;10.85;;;;;;;2.40;100.00;97523.42;2138085;83;21031;-61
2022/03/31 06:47:40;;;;;;;22.32;9.60;;;;;;;2.38;100.00;97522.17;2138089;83;21462;-61
2022/03/31 06:50:42;;;;;;;24.43;11.07;;;;;;;2.41;100.00;97518.59;2138435;83;20979;-61
2022/03/31 06:53:44;;;;;;;25.23;11.00;;;;;;;2.44;100.00;97528.80;2138174;83;21849;-61
2022/03/31 06:56:48;;;;;;;22.95;9.40;;;;;;;2.42;100.00;97526.75;2138254;83;21047;-61
2022/03/31 06:59:49;;;;;;;24.20;9.43;;;;;;;2.51;100.00;97530.17;2113642;83;20964;-61
2022/03/31 07:02:50;;;;;;;22.02;9.25;;;;;;;2.55;100.00;97530.87;2138169;83;21047;-61
2022/03/31 07:05:52;;;;;;;24.07;9.53;;;;;;;2.46;100.00;97522.25;2138215;83;21078;-61
2022/03/31 07:08:54;;;;;;;23.18;9.15;;;;;;;2.45;100.00;97527.89;2138198;83;20994;-61
2022/03/31 07:11:55;;;;;;;21.82;8.83;;;;;;;2.49;100.00;97528.59;2138031;83;20983;-61
2022/03/31 07:14:56;;;;;;;23.50;9.53;;;;;;;2.43;100.00;97524.56;2138265;83;21481;-61
2022/03/31 07:18:03;;;;;;;23.38;9.55;;;;;;;2.45;100.00;97523.19;2138113;83;20999;-60
2022/03/31 07:21:02;;;;;;;22.60;9.05;;;;;;;2.51;100.00;97524.17;2113744;83;20977;-61
2022/03/31 07:24:04;;;;;;;21.73;8.58;;;;;;;2.61;100.00;97520.21;2138324;83;21046;-61
2022/03/31 07:27:06;;;;;;;21.82;8.58;;;;;;;2.74;100.00;97519.14;2137962;83;21583;-61
2022/03/31 07:30:07;;;;;;;21.75;8.68;;;;;;;2.81;100.00;97520.98;2138156;83;20990;-60
2022/03/31 07:33:09;;;;;;;21.95;8.58;;;;;;;2.78;100.00;97513.73;2130509;83;21079;-61
2022/03/31 07:36:12;;;;;;;22.40;8.83;;;;;;;2.84;100.00;97506.11;2127615;84;21063;-61
2022/03/31 07:39:14;;;;;;;22.00;9.18;;;;;;;2.91;100.00;97514.41;2127494;84;21611;-61
2022/03/31 07:42:15;;;;;;;22.02;8.98;;;;;;;3.02;100.00;97513.41;2127469;84;20975;-61
2022/03/31 07:45:17;;;;;;;22.60;9.40;;;;;;;3.06;100.00;97516.67;2127743;84;21553;-61
2022/03/31 07:48:18;;;;;;;21.70;8.68;;;;;;;3.16;100.00;97524.81;2127182;84;20979;-61
2022/03/31 07:51:20;;;;;;;20.63;8.20;;;;;;;3.24;100.00;97529.14;2127463;84;21573;-61
2022/03/31 07:54:21;;;;;;;21.60;8.00;;;;;;;3.25;100.00;97538.13;2127279;84;21244;-61
2022/03/31 07:57:23;;;;;;;21.52;8.23;;;;;;;3.25;100.00;97538.60;2127196;84;21083;-61
2022/03/31 08:00:24;;;;;;;21.68;8.50;;;;;;;3.20;100.00;97538.81;2127478;84;21102;-61
2022/03/31 08:03:26;;;;;;;20.15;7.85;;;;;;;3.06;100.00;97543.87;2127217;84;20987;-60
2022/03/31 08:06:27;;;;;;;21.40;8.73;;;;;;;3.07;100.00;97543.79;2127744;84;21550;-61
2022/03/31 08:09:29;;;;;;;19.97;7.60;;;;;;;3.09;100.00;97545.03;2127490;84;21297;-61
2022/03/31 08:12:30;;;;;;;21.93;8.33;;;;;;;3.14;100.00;97548.68;2127189;84;21534;-61
2022/03/31 08:15:32;;;;;;;21.35;8.68;;;;;;;3.17;100.00;97550.64;2127358;84;21039;-61
2022/03/31 08:18:34;;;;;;;22.77;9.27;;;;;;;3.16;100.00;97555.47;2127154;84;21618;-61
2022/03/31 08:21:36;;;;;;;22.07;8.35;;;;;;;3.08;100.00;97550.66;2127392;84;21332;-61
2022/03/31 08:24:37;;;;;;;24.70;10.50;;;;;;;3.12;100.00;97561.25;2127563;84;21506;-61
2022/03/31 08:27:39;;;;;;;22.00;8.53;;;;;;;3.11;100.00;97567.80;2127142;84;21044;-61
2022/03/31 08:30:40;;;;;;;22.82;8.65;;;;;;;3.15;100.00;97569.77;2127314;84;20981;-61
2022/03/31 08:33:42;;;;;;;20.52;7.95;;;;;;;3.23;100.00;97563.30;2127287;83;21019;-61
2022/03/31 08:36:44;;;;;;;25.57;10.25;;;;;;;3.12;100.00;97569.02;2127446;84;21564;-61
2022/03/31 08:39:45;;;;;;;27.85;11.40;;;;;;;3.10;100.00;97566.12;2127427;84;20979;-61
2022/03/31 08:42:47;;;;;;;27.22;11.22;;;;;;;3.20;100.00;97576.39;2127270;84;21036;-61
2022/03/31 08:45:54;;;;;;;23.47;9.03;;;;;;;3.36;100.00;97571.72;2127177;84;21131;-61
2022/03/31 08:48:52;;;;;;;21.93;8.43;;;;;;;3.44;100.00;97575.59;2099331;84;20964;-61
2022/03/31 08:51:53;;;;;;;21.60;8.30;;;;;;;3.53;100.00;97579.92;2127389;84;21538;-61
2022/03/31 08:54:55;;;;;;;20.27;7.73;;;;;;;3.58;100.00;97589.61;2127386;84;21051;-61
2022/03/31 08:57:57;;;;;;;20.97;7.87;;;;;;;3.43;100.00;97573.94;2127414;84;21844;-61
2022/03/31 09:00:59;;;;;;;20.52;7.75;;;;;;;3.53;100.00;97574.27;2127236;84;21122;-61
2022/03/31 09:04:01;;;;;;;21.82;8.65;;;;;;;3.53;100.00;97584.64;2127273;84;21534;-61
2022/03/31 09:07:02;;;;;;;19.27;7.58;;;;;;;3.46;100.00;97584.58;2127283;84;20983;-61
2022/03/31 09:10:03;;;;;;;25.43;9.83;;;;;;;3.42;100.00;97573.98;2127177;84;21402;-61
2022/03/31 09:13:05;;;;;;;23.53;8.73;;;;;;;3.40;100.00;97581.84;2127184;84;21166;-61
2022/03/31 09:16:08;;;;;;;22.13;9.07;;;;;;;3.35;100.00;97586.89;2127397;84;21043;-61
2022/03/31 09:19:10;;;;;;;23.32;9.15;;;;;;;3.28;100.00;97587.21;2126805;84;21769;-61
2022/03/31 09:22:11;;;;;;;23.40;9.80;;;;;;;3.30;100.00;97588.42;2127379;84;21468;-61
2022/03/31 09:25:13;;;;;;;22.82;9.68;;;;;;;3.22;100.00;97582.79;2127155;84;21316;-61
2022/03/31 09:28:14;;;;;;;24.25;9.93;;;;;;;3.32;100.00;97585.31;2127198;84;21585;-60
2022/03/31 09:31:16;;;;;;;25.65;10.25;;;;;;;3.32;100.00;97586.61;2127508;84;21102;-60
2022/03/31 09:34:17;;;;;;;24.57;10.93;;;;;;;3.36;100.00;97580.36;2136481;83;21030;-60
2022/03/31 09:37:19;;;;;;;23.30;9.97;;;;;;;3.49;100.00;97570.16;2138639;83;21521;-61
2022/03/31 09:40:21;;;;;;;24.12;10.13;;;;;;;3.46;100.00;97569.88;2138030;83;21015;-61
2022/03/31 09:43:22;;;;;;;24.57;10.47;;;;;;;3.41;100.00;97581.41;2138481;83;21494;-61
2022/03/31 09:46:24;;;;;;;23.45;9.80;;;;;;;3.42;100.00;97582.63;2138127;83;21331;-61
2022/03/31 09:49:26;;;;;;;24.35;10.40;;;;;;;3.44;100.00;97579.95;2138059;83;21623;-60
2022/03/31 09:52:27;;;;;;;24.93;10.43;;;;;;;3.39;100.00;97577.60;2138367;83;20982;-61
2022/03/31 09:55:29;;;;;;;23.95;10.93;;;;;;;3.45;100.00;97585.52;2138098;83;22177;-61
2022/03/31 09:58:33;;;;;;;25.10;10.77;;;;;;;3.59;100.00;97590.83;2138375;83;20986;-61
2022/03/31 10:01:34;;;;;;;26.77;11.08;;;;;;;3.64;100.00;97580.20;2113796;83;21248;-61
2022/03/31 10:04:36;;;;;;;25.17;10.67;;;;;;;3.68;100.00;97585.61;2138621;83;20991;-60
2022/03/31 10:07:37;;;;;;;24.15;10.13;;;;;;;3.53;100.00;97589.00;2138025;83;21106;-61
2022/03/31 10:10:38;;;;;;;24.87;11.03;;;;;;;3.47;100.00;97583.67;2138047;83;21462;-61
2022/03/31 10:13:42;;;;;;;25.57;10.53;;;;;;;3.46;100.00;97593.22;2138034;83;20979;-61
2022/03/31 10:16:47;;;;;;;25.77;10.68;;;;;;;3.36;100.00;97597.64;2113691;83;21019;-61
2022/03/31 10:19:47;;;;;;;26.75;10.98;;;;;;;3.37;100.00;97585.07;2113738;83;21035;-61
2022/03/31 10:25:51;;;;;;;26.77;11.33;;;;;;;3.50;100.00;97596.47;2113749;83;21027;-61
2022/03/31 10:28:53;;;;;;;26.73;11.70;;;;;;;3.53;100.00;97594.19;2138418;83;21031;-61
2022/03/31 10:31:55;;;;;;;26.07;11.53;;;;;;;3.57;100.00;97594.41;2138167;83;21102;-61
2022/03/31 10:34:57;;;;;;;27.62;11.18;;;;;;;3.63;100.00;97595.38;2137993;83;21074;-60
2022/03/31 10:37:58;;;;;;;26.13;11.17;;;;;;;3.66;100.00;97586.13;2138438;83;21510;-61
2022/03/31 10:41:00;;;;;;;29.43;12.57;;;;;;;3.66;100.00;97586.13;2138524;83;21348;-61
2022/03/31 10:44:01;;;;;;;28.20;11.50;;;;;;;3.49;100.00;97585.72;2138305;83;20963;-61
2022/03/31 10:47:03;;;;;;;29.60;11.22;;;;;;;3.39;100.00;97571.56;2138069;83;21021;-61
2022/03/31 10:50:04;;;;;;;29.65;12.98;;;;;;;3.34;100.00;97567.09;2138289;83;21010;-61
2022/03/31 10:53:06;;;;;;;34.83;15.27;;;;;;;3.40;100.00;97561.11;2138376;83;21011;-61
2022/03/31 10:56:07;;;;;;;33.80;13.65;;;;;;;3.39;100.00;97558.60;2138458;83;20998;-61
2022/03/31 10:59:09;;;;;;;27.07;12.78;;;;;;;3.34;100.00;97562.73;2137884;83;20991;-61
2022/03/31 11:02:10;;;;;;;30.25;14.15;;;;;;;3.27;100.00;97549.72;2138132;83;21614;-60
2022/03/31 11:05:12;;;;;;;34.67;18.17;;;;;;;3.29;100.00;97555.67;2138321;83;21022;-61
2022/03/31 11:08:17;;;;;;;28.53;12.90;;;;;;;3.20;100.00;97539.28;2138537;83;22049;-61
2022/03/31 11:11:18;;;;;;;25.72;11.63;;;;;;;3.20;100.00;97544.00;2114059;83;20992;-61
2022/03/31 11:14:20;;;;;;;28.10;12.23;;;;;;;3.25;100.00;97549.80;2137992;83;21055;-61
2022/03/31 11:17:22;;;;;;;29.75;13.38;;;;;;;3.24;100.00;97547.28;2138437;83;21022;-61
2022/03/31 11:20:24;;;;;;;;;;;;;;;3.38;100.00;97553.89;2140634;83;21533;-61
2022/03/31 11:23:25;;;;;;;30.37;11.60;;;;;;;3.43;100.00;97553.20;2138033;83;20109;-61
2022/03/31 11:26:27;;;;;;;33.87;15.23;;;;;;;3.33;100.00;97545.50;2138528;83;21513;-61
2022/03/31 11:29:30;;;;;;;31.10;13.10;;;;;;;3.39;100.00;97552.98;2137871;83;21050;-61
2022/03/31 11:32:32;;;;;;;29.20;11.68;;;;;;;3.42;100.00;97556.70;2138159;83;21280;-61
2022/03/31 11:35:33;;;;;;;26.90;11.67;;;;;;;3.64;100.00;97544.73;2138293;83;21015;-61
2022/03/31 11:38:35;;;;;;;30.30;12.58;;;;;;;3.69;100.00;97545.77;2138148;83;20960;-61
2022/03/31 11:41:36;;;;;;;28.15;11.73;;;;;;;3.57;100.00;97537.37;2138005;83;21010;-60
2022/03/31 11:44:39;;;;;;;29.20;11.60;;;;;;;3.47;100.00;97549.50;2138141;83;21046;-61
2022/03/31 11:47:40;;;;;;;28.05;12.13;;;;;;;3.34;100.00;97542.47;2138030;83;21590;-61
2022/03/31 11:50:42;;;;;;;28.87;13.03;;;;;;;3.35;100.00;97544.12;2138269;83;21069;-61
2022/03/31 11:53:43;;;;;;;28.85;11.70;;;;;;;3.41;100.00;97539.94;2137941;83;21078;-61
2022/03/31 11:56:45;;;;;;;29.82;12.85;;;;;;;3.28;100.00;97553.98;2137937;83;21554;-61
2022/03/31 11:59:47;;;;;;;28.27;12.13;;;;;;;3.29;100.00;97563.45;2138074;83;21096;-61
2022/03/31 12:02:48;;;;;;;30.45;13.13;;;;;;;3.31;100.00;97560.30;2138151;83;21459;-61
2022/03/31 12:05:50;;;;;;;30.65;12.33;;;;;;;3.12;100.00;97565.13;2137926;83;21123;-60
2022/03/31 12:08:54;;;;;;;29.40;12.40;;;;;;;3.10;100.00;97568.71;2138002;83;21010;-61
2022/03/31 12:11:54;;;;;;;29.77;12.68;;;;;;;3.15;100.00;97564.14;2113998;83;21526;-60
2022/03/31 12:14:56;;;;;;;29.25;12.65;;;;;;;3.18;100.00;97564.45;2138181;83;21086;-61
2022/03/31 12:17:58;;;;;;;28.85;12.40;;;;;;;3.22;100.00;97571.13;2138343;83;21626;-61
2022/03/31 12:21:00;;;;;;;29.90;12.18;;;;;;;3.11;100.00;97569.09;2138181;83;21015;-61
2022/03/31 12:27:06;;;;;;;26.80;10.95;;;;;;;3.16;100.00;97549.42;2113503;83;21075;-61
2022/03/31 12:30:08;;;;;;;;;;;;;;;3.24;100.00;97544.70;2140851;83;21497;-61
2022/03/31 12:33:09;;;;;;;31.62;13.05;;;;;;;3.21;100.00;97555.22;2135772;83;20110;-61
2022/03/31 12:36:11;;;;;;;28.87;11.63;;;;;;;3.20;100.00;97559.55;2127406;84;21527;-61
2022/03/31 12:39:12;;;;;;;28.47;12.58;;;;;;;3.27;100.00;97547.13;2127191;84;20984;-60
2022/03/31 12:42:15;;;;;;;28.73;12.33;;;;;;;3.36;100.00;97541.92;2127153;84;21570;-61
2022/03/31 12:45:16;;;;;;;34.13;13.68;;;;;;;3.38;100.00;97550.47;2127271;84;21015;-61
2022/03/31 12:48:18;;;;;;;28.32;12.28;;;;;;;3.46;100.00;97545.26;2127691;84;21024;-61
2022/03/31 12:51:19;;;;;;;30.48;12.00;;;;;;;3.35;100.00;97541.09;2127166;83;21079;-61
2022/03/31 12:54:21;;;;;;;29.30;12.80;;;;;;;3.33;100.00;97539.02;2127259;84;21665;-61
2022/03/31 12:57:22;;;;;;;29.70;14.47;;;;;;;3.21;100.00;97535.31;2127192;84;21047;-61
2022/03/31 13:00:24;;;;;;;28.25;11.80;;;;;;;3.20;100.00;97537.52;2127148;84;21106;-61
2022/03/31 13:03:25;;;;;;;30.65;13.10;;;;;;;3.34;100.00;97523.86;2127596;84;21039;-60
2022/03/31 13:06:28;;;;;;;31.75;12.60;;;;;;;3.42;100.00;97530.78;2127153;84;21051;-61
2022/03/31 13:09:29;;;;;;;27.98;12.23;;;;;;;3.39;100.00;97536.56;2127179;84;21048;-60
2022/03/31 13:12:31;;;;;;;28.00;11.48;;;;;;;3.26;100.00;97527.30;2127336;84;21546;-61
2022/03/31 13:15:32;;;;;;;30.00;11.97;;;;;;;3.22;100.00;97527.08;2127256;84;21014;-61
2022/03/31 13:18:35;;;;;;;31.35;12.35;;;;;;;3.28;100.00;97526.78;2127152;84;21067;-61
2022/03/31 13:21:36;;;;;;;30.15;12.40;;;;;;;3.33;100.00;97522.64;2127219;84;21079;-60
2022/03/31 13:24:38;;;;;;;27.15;11.93;;;;;;;3.24;100.00;97511.83;2126909;84;21075;-61
2022/03/31 13:27:39;;;;;;;29.98;12.10;;;;;;;3.15;100.00;97517.94;2127401;84;21550;-61
2022/03/31 13:30:41;;;;;;;32.42;13.25;;;;;;;3.12;100.00;97516.37;2126969;84;21068;-61
2022/03/31 13:33:43;;;;;;;27.67;11.37;;;;;;;3.09;100.00;97513.47;2129987;83;21088;-60
2022/03/31 13:36:44;;;;;;;31.30;13.53;;;;;;;3.11;100.00;97513.39;2138325;83;21326;-60
2022/03/31 13:39:45;;;;;;;29.98;12.43;;;;;;;3.20;100.00;97510.31;2138058;83;20959;-61
2022/03/31 13:42:47;;;;;;;38.60;15.65;;;;;;;3.11;100.00;97511.63;2138357;83;21462;-61
2022/03/31 13:45:48;;;;;;;32.60;14.50;;;;;;;3.10;100.00;97497.02;2137965;83;21035;-61
2022/03/31 13:48:50;;;;;;;32.93;14.05;;;;;;;3.15;100.00;97499.37;2137868;83;21095;-61
2022/03/31 13:51:51;;;;;;;29.05;11.68;;;;;;;3.20;100.00;97500.41;2138277;83;21060;-61
2022/03/31 13:54:53;;;;;;;32.93;13.57;;;;;;;3.23;100.00;97484.70;2138166;83;21134;-61
2022/03/31 14:04:01;;;;;;;31.87;13.30;;;;;;;3.18;100.00;97472.47;2113576;83;21026;-61
2022/03/31 14:07:06;;;;;;;32.08;13.62;;;;;;;3.20;100.00;97466.26;2138324;83;21498;-61
2022/03/31 14:10:06;;;;;;;31.45;13.35;;;;;;;3.17;100.00;97478.09;2113694;83;20990;-61
2022/03/31 14:13:07;;;;;;;36.53;15.05;;;;;;;3.27;100.00;97474.09;2137991;83;21006;-61
2022/03/31 14:16:09;;;;;;;53.87;22.70;;;;;;;3.40;100.00;97463.08;2138297;83;21030;-61
2022/03/31 14:19:11;;;;;;;52.33;21.55;;;;;;;3.45;100.00;97462.39;2138145;83;21082;-61